Time;durP1;ratioP1;P1;durP2;ratioP2;P2;SDS_P1;SDS_P2;PMS_P1;PMS_P2;Temp;Humidity;BMP_temperature;BMP_pressure;BME280_temperature;BME280_humidity;BME280_pressure;Samples;Min_cycle;Max_cycle;Signal;HPM_P1;HPM_P2
2022/11/09 00:00:17;;;;;;;6.35;3.80;;;14.10;94.70;;;;;;5046735;28;20489;-57
2022/11/09 00:03:03;;;;;;;4.22;3.35;;;14.00;94.80;;;;;;5033939;28;20033;-54
2022/11/09 00:05:56;;;;;;;4.80;3.90;;;14.00;94.60;;;;;;5046432;28;20028;-55
2022/11/09 00:08:42;;;;;;;5.32;3.40;;;14.00;94.70;;;;;;5033604;28;20473;-56
2022/11/09 00:11:28;;;;;;;4.47;4.03;;;14.00;94.70;;;;;;5047472;28;20029;-56
2022/11/09 00:14:15;;;;;;;5.00;3.50;;;14.00;94.70;;;;;;5047390;28;20104;-60
2022/11/09 00:17:01;;;;;;;4.63;3.60;;;14.00;94.60;;;;;;5047854;28;20056;-57
2022/11/09 00:19:47;;;;;;;5.10;3.40;;;13.90;94.80;;;;;;5045399;28;20508;-59
2022/11/09 00:22:33;;;;;;;4.35;3.95;;;13.90;94.80;;;;;;5046780;28;20159;-58
2022/11/09 00:25:19;;;;;;;5.32;3.58;;;14.00;94.80;;;;;;5046221;28;20025;-55
2022/11/09 00:28:05;;;;;;;4.30;3.35;;;14.00;94.70;;;;;;5034243;28;20180;-59
2022/11/09 00:30:51;;;;;;;4.93;3.53;;;14.00;94.70;;;;;;5032643;28;20078;-59
2022/11/09 00:33:37;;;;;;;5.28;3.63;;;14.00;94.70;;;;;;5047242;28;20095;-60
2022/11/09 00:36:25;;;;;;;4.05;3.28;;;14.00;94.90;;;;;;5021243;28;20061;-60
2022/11/09 00:39:11;;;;;;;5.78;3.53;;;14.00;94.80;;;;;;5048248;28;20017;-57
2022/11/09 00:41:57;;;;;;;4.22;3.38;;;14.00;94.80;;;;;;5047033;28;20036;-60
2022/11/09 00:44:43;;;;;;;4.47;3.13;;;14.10;94.70;;;;;;5048081;28;20044;-58
2022/11/09 00:47:29;;;;;;;4.47;3.58;;;14.00;94.80;;;;;;5045219;28;20063;-62
2022/11/09 00:50:15;;;;;;;5.78;3.90;;;14.00;94.90;;;;;;5046914;28;20608;-55
2022/11/09 00:53:01;;;;;;;4.10;3.30;;;14.00;94.90;;;;;;5046317;28;20021;-56
2022/11/09 00:56:09;;;;;;;5.45;3.80;;;14.10;94.80;;;;;;5030750;28;20040;-58
2022/11/09 00:58:55;;;;;;;4.57;3.38;;;14.10;94.80;;;;;;5045594;28;20017;-57
2022/11/09 01:01:41;;;;;;;6.70;3.47;;;14.10;94.70;;;;;;5048071;28;20025;-59
2022/11/09 01:04:27;;;;;;;5.40;3.58;;;14.10;94.80;;;;;;5051863;28;20024;-57
2022/11/09 01:07:13;;;;;;;5.20;3.30;;;14.10;94.70;;;;;;5048990;28;20108;-54
2022/11/09 01:09:59;;;;;;;4.45;3.47;;;14.10;94.70;;;;;;5050759;28;20029;-59
2022/11/09 01:12:45;;;;;;;4.35;3.40;;;14.10;94.60;;;;;;5051956;28;20397;-57
2022/11/09 01:15:31;;;;;;;4.97;3.85;;;14.10;94.60;;;;;;5035407;28;20405;-60
2022/11/09 01:18:19;;;;;;;5.03;3.30;;;14.00;94.80;;;;;;5049901;28;20112;-56
2022/11/09 01:21:07;;;;;;;5.30;3.47;;;14.10;94.70;;;;;;5051399;28;20053;-54
2022/11/09 01:23:54;;;;;;;3.97;3.13;;;14.00;95.00;;;;;;5049693;28;20028;-56
2022/11/09 01:26:40;;;;;;;4.55;3.15;;;14.00;95.00;;;;;;5050805;28;20393;-56
2022/11/09 01:29:26;;;;;;;3.80;3.40;;;14.00;95.00;;;;;;5050925;28;20053;-58
2022/11/09 01:32:12;;;;;;;3.85;3.45;;;13.90;95.10;;;;;;5035599;28;20017;-61
2022/11/09 01:34:57;;;;;;;4.43;3.50;;;13.90;95.30;;;;;;5048958;28;20027;-57
2022/11/09 01:37:43;;;;;;;6.53;3.55;;;13.90;95.20;;;;;;5051235;28;20028;-57
2022/11/09 01:40:31;;;;;;;6.25;3.58;;;13.90;95.30;;;;;;5048323;28;20029;-58
2022/11/09 01:43:21;;;;;;;6.57;3.28;;;13.90;95.30;;;;;;5049673;28;20455;-57
2022/11/09 01:46:23;;;;;;;4.70;3.28;;;13.90;95.20;;;;;;5050394;28;20061;-57
2022/11/09 01:49:21;;;;;;;5.75;3.80;;;13.90;95.20;;;;;;5048684;28;20096;-58
2022/11/09 01:52:12;;;;;;;5.53;3.63;;;13.90;95.30;;;;;;5050953;28;20024;-56
2022/11/09 01:55:06;;;;;;;8.25;4.05;;;13.90;95.30;;;;;;5049277;28;20021;-56
2022/11/09 01:58:04;;;;;;;17.48;4.75;;;13.90;95.10;;;;;;5035962;28;20104;-59
2022/11/09 02:00:50;;;;;;;5.72;3.50;;;13.90;95.10;;;;;;5048131;28;20029;-59
2022/11/09 02:03:50;;;;;;;5.38;3.60;;;14.00;95.00;;;;;;5048432;28;20025;-60
2022/11/09 02:06:36;;;;;;;5.68;3.92;;;14.00;94.80;;;;;;5049135;28;20044;-58
2022/11/09 02:09:37;;;;;;;5.63;4.28;;;14.10;94.90;;;;;;5049379;28;20033;-59
2022/11/09 02:12:24;;;;;;;5.72;3.72;;;14.00;94.90;;;;;;5049648;28;20028;-60
2022/11/09 02:15:12;;;;;;;5.53;3.50;;;14.10;95.00;;;;;;5048245;28;20025;-58
2022/11/09 02:17:58;;;;;;;4.63;3.35;;;14.00;95.00;;;;;;5048180;28;20021;-61
2022/11/09 02:20:45;;;;;;;5.07;3.78;;;14.00;95.10;;;;;;5035343;28;20059;-60
2022/11/09 02:23:31;;;;;;;7.18;3.78;;;14.00;95.20;;;;;;5048249;28;20063;-58
2022/11/09 02:26:27;;;;;;;4.45;3.72;;;14.00;95.20;;;;;;5049343;28;20466;-56
2022/11/09 02:29:26;;;;;;;5.38;3.75;;;13.90;95.30;;;;;;5048432;28;20025;-56
2022/11/09 02:32:19;;;;;;;8.57;4.00;;;13.90;95.40;;;;;;5048225;28;20017;-57
2022/11/09 02:35:05;;;;;;;4.63;3.72;;;13.90;95.40;;;;;;5049725;28;20014;-59
2022/11/09 02:37:51;;;;;;;5.68;3.85;;;13.90;95.40;;;;;;5048191;28;20100;-58
2022/11/09 02:40:41;;;;;;;7.00;3.60;;;13.90;95.40;;;;;;5049527;28;20037;-58
2022/11/09 02:43:27;;;;;;;4.72;3.60;;;13.90;95.50;;;;;;5046761;28;20074;-56
2022/11/09 02:46:31;;;;;;;6.22;3.70;;;13.90;95.50;;;;;;5047760;28;20484;-59
2022/11/09 02:49:17;;;;;;;4.22;3.60;;;13.90;95.50;;;;;;5038871;28;20083;-57
2022/11/09 02:52:03;;;;;;;6.70;3.92;;;13.80;95.60;;;;;;5048325;28;20025;-58
2022/11/09 02:54:49;;;;;;;6.30;3.50;;;13.80;95.80;;;;;;5047646;28;20028;-57
2022/11/09 02:57:35;;;;;;;7.90;3.58;;;13.70;95.90;;;;;;5048455;28;20040;-58
2022/11/09 03:00:21;;;;;;;7.07;3.75;;;13.80;95.90;;;;;;5049275;28;20088;-59
2022/11/09 03:03:07;;;;;;;4.63;3.42;;;13.80;95.90;;;;;;5048952;28;20040;-57
2022/11/09 03:05:53;;;;;;;4.68;3.40;;;13.80;95.90;;;;;;5047019;28;20564;-58
2022/11/09 03:08:39;;;;;;;4.70;3.60;;;13.80;96.10;;;;;;5021237;28;20036;-57
2022/11/09 03:11:25;;;;;;;5.88;3.88;;;13.80;95.90;;;;;;5050625;28;20508;-55
2022/11/09 03:14:11;;;;;;;5.68;3.47;;;13.80;95.90;;;;;;5049635;28;20610;-57
2022/11/09 03:16:57;;;;;;;6.05;3.78;;;13.90;96.00;;;;;;5032198;28;20044;-59
2022/11/09 03:19:44;;;;;;;4.47;3.63;;;13.80;96.00;;;;;;5049054;28;20116;-60
2022/11/09 03:22:30;;;;;;;5.80;3.40;;;13.90;96.10;;;;;;5046678;28;20075;-57
2022/11/09 03:25:16;;;;;;;5.35;3.35;;;13.90;96.10;;;;;;5046681;28;20033;-56
2022/11/09 03:28:05;;;;;;;5.82;4.10;;;13.90;96.60;;;;;;5046978;28;20440;-60
2022/11/09 03:30:51;;;;;;;6.82;3.95;;;13.80;96.60;;;;;;5046384;28;20551;-60
2022/11/09 03:33:37;;;;;;;4.57;3.75;;;13.80;96.60;;;;;;5047752;28;20064;-57
2022/11/09 03:36:23;;;;;;;4.72;3.75;;;13.70;96.70;;;;;;5048731;28;20241;-60
2022/11/09 03:39:09;;;;;;;6.03;3.75;;;13.60;97.00;;;;;;5046799;28;20021;-58
2022/11/09 03:41:55;;;;;;;4.85;3.58;;;13.50;97.20;;;;;;5046115;28;20076;-57
2022/11/09 03:44:41;;;;;;;3.78;3.30;;;13.40;97.40;;;;;;5049491;28;20570;-59
2022/11/09 03:47:26;;;;;;;4.72;4.10;;;13.40;97.50;;;;;;5045806;28;20438;-58
2022/11/09 03:50:15;;;;;;;6.35;3.75;;;13.40;97.60;;;;;;5031778;28;20029;-61
2022/11/09 03:53:01;;;;;;;6.57;4.70;;;13.50;97.60;;;;;;5048237;28;20028;-58
2022/11/09 03:55:47;;;;;;;6.18;5.43;;;13.50;97.60;;;;;;5045012;28;20596;-56
2022/11/09 03:58:33;;;;;;;6.47;4.47;;;13.60;97.40;;;;;;5045777;28;20025;-60
2022/11/09 04:01:19;;;;;;;5.65;3.65;;;13.50;97.50;;;;;;5047282;28;20066;-58
2022/11/09 04:04:05;;;;;;;6.47;3.78;;;13.50;97.60;;;;;;5048295;28;20472;-56
2022/11/09 04:06:50;;;;;;;5.25;4.22;;;13.60;97.60;;;;;;5030935;28;20056;-57
2022/11/09 04:09:37;;;;;;;5.63;3.80;;;13.60;97.60;;;;;;5047702;28;20061;-55
2022/11/09 04:12:23;;;;;;;5.63;3.78;;;13.60;97.80;;;;;;5046554;28;20112;-56
2022/11/09 04:15:10;;;;;;;7.00;3.95;;;13.60;97.70;;;;;;5046314;28;20103;-57
2022/11/09 04:17:58;;;;;;;5.55;3.78;;;13.60;97.90;;;;;;5046823;28;20037;-58
2022/11/09 04:20:44;;;;;;;6.07;3.80;;;13.60;97.90;;;;;;5032415;28;20124;-59
2022/11/09 04:23:30;;;;;;;4.63;3.67;;;13.70;97.90;;;;;;5044902;28;20021;-60
2022/11/09 04:26:16;;;;;;;4.45;3.33;;;13.60;98.00;;;;;;5045460;28;20025;-60
2022/11/09 04:29:02;;;;;;;6.88;3.75;;;13.70;98.10;;;;;;5047654;28;20013;-59
2022/11/09 04:31:48;;;;;;;10.80;4.72;;;13.70;98.20;;;;;;5046778;28;20048;-56
2022/11/09 04:34:34;;;;;;;8.73;4.38;;;13.80;98.20;;;;;;5046198;28;20032;-59
2022/11/09 04:37:20;;;;;;;6.22;3.80;;;13.90;98.20;;;;;;5047833;28;20389;-58
2022/11/09 04:40:07;;;;;;;6.50;3.97;;;13.90;98.10;;;;;;5052018;28;20119;-58
2022/11/09 04:42:53;;;;;;;6.93;4.10;;;14.00;98.10;;;;;;5051701;28;20031;-60
2022/11/09 04:45:39;;;;;;;7.35;4.05;;;14.00;98.20;;;;;;5051158;28;20039;-59
2022/11/09 04:48:25;;;;;;;7.00;3.67;;;14.00;98.40;;;;;;5048368;28;20159;-60
2022/11/09 04:51:11;;;;;;;6.03;4.10;;;14.00;98.60;;;;;;5052534;28;20021;-58
2022/11/09 04:53:57;;;;;;;6.10;3.80;;;14.10;98.80;;;;;;5050595;28;20101;-56
2022/11/09 04:56:43;;;;;;;10.20;4.03;;;14.00;99.00;;;;;;5051436;28;20029;-56
2022/11/09 04:59:29;;;;;;;7.07;4.22;;;14.00;99.30;;;;;;5031248;28;20029;-56
2022/11/09 05:02:15;;;;;;;5.65;4.07;;;13.90;99.50;;;;;;5050156;28;20029;-54
2022/11/09 05:05:01;;;;;;;5.13;3.40;;;13.90;99.80;;;;;;5050145;28;20033;-58
2022/11/09 05:07:47;;;;;;;7.07;3.67;;;13.80;99.90;;;;;;5050726;28;20064;-58
2022/11/09 05:10:34;;;;;;;5.47;4.60;;;13.80;99.90;;;;;;5049121;28;20104;-59
2022/11/09 05:13:20;;;;;;;5.85;4.03;;;13.80;99.90;;;;;;5050403;28;20362;-57
2022/11/09 05:16:06;;;;;;;5.63;4.13;;;13.70;99.90;;;;;;5051576;28;20512;-57
2022/11/09 05:18:52;;;;;;;7.00;4.63;;;13.70;99.90;;;;;;5031759;28;20033;-56
2022/11/09 05:21:38;;;;;;;6.88;4.30;;;13.60;99.90;;;;;;5052045;28;20029;-59
2022/11/09 05:24:24;;;;;;;6.95;4.72;;;13.60;99.90;;;;;;5052711;28;20120;-61
2022/11/09 05:27:10;;;;;;;5.85;3.92;;;13.40;99.90;;;;;;5050228;28;20036;-58
2022/11/09 05:29:56;;;;;;;4.85;4.35;;;13.40;99.90;;;;;;5052201;28;20032;-58
2022/11/09 05:32:42;;;;;;;7.88;4.38;;;13.40;99.90;;;;;;5050664;28;20033;-55
2022/11/09 05:35:28;;;;;;;5.63;4.07;;;13.40;99.90;;;;;;5050547;28;20078;-60
2022/11/09 05:38:14;;;;;;;7.65;4.68;;;13.40;99.90;;;;;;5048996;28;20035;-60
2022/11/09 05:41:00;;;;;;;5.53;4.35;;;13.30;99.90;;;;;;5048564;28;20184;-61
2022/11/09 05:43:46;;;;;;;6.20;4.13;;;13.40;99.90;;;;;;5034457;28;20078;-60
2022/11/09 05:46:33;;;;;;;8.05;4.35;;;13.40;99.90;;;;;;5047657;28;20090;-60
2022/11/09 05:49:18;;;;;;;5.10;4.53;;;13.30;99.90;;;;;;5050667;28;20024;-59
2022/11/09 05:52:04;;;;;;;5.15;3.70;;;13.30;99.90;;;;;;5052338;28;20122;-61
2022/11/09 05:54:50;;;;;;;6.65;4.07;;;13.30;99.90;;;;;;5049796;28;20108;-56
2022/11/09 05:57:36;;;;;;;6.05;4.90;;;13.40;99.90;;;;;;5053023;28;20029;-58
2022/11/09 06:00:22;;;;;;;6.95;4.60;;;13.40;99.90;;;;;;5032155;28;20108;-59
2022/11/09 06:03:10;;;;;;;7.10;4.63;;;13.40;99.90;;;;;;5055483;28;20032;-59
2022/11/09 06:06:00;;;;;;;6.70;4.47;;;13.40;99.90;;;;;;5071031;28;20036;-58
2022/11/09 06:08:46;;;;;;;8.02;4.30;;;13.40;99.90;;;;;;5063241;28;20048;-63
2022/11/09 06:11:32;;;;;;;20.85;17.10;;;13.30;99.90;;;;;;5047764;28;20048;-57
2022/11/09 06:14:18;;;;;;;5.47;4.85;;;13.30;99.90;;;;;;5049211;28;20021;-59
2022/11/09 06:17:04;;;;;;;8.02;4.82;;;13.30;99.90;;;;;;5024479;28;20061;-61
2022/11/09 06:19:50;;;;;;;10.23;5.43;;;13.20;99.90;;;;;;5049680;28;20108;-59
2022/11/09 06:22:36;;;;;;;10.88;5.78;;;13.20;99.90;;;;;;5050779;28;20032;-57
2022/11/09 06:25:22;;;;;;;10.30;6.05;;;13.20;99.90;;;;;;5048811;28;20033;-61
2022/11/09 06:28:08;;;;;;;8.77;5.18;;;13.20;99.90;;;;;;5040853;28;20452;-59
2022/11/09 06:30:58;;;;;;;16.52;9.38;;;13.10;99.90;;;;;;5049521;28;20456;-60
2022/11/09 06:33:44;;;;;;;13.65;6.53;;;13.20;99.90;;;;;;5049858;28;20717;-58
2022/11/09 06:36:30;;;;;;;11.18;4.75;;;13.20;99.90;;;;;;5049613;28;20512;-57
2022/11/09 06:39:16;;;;;;;5.43;4.60;;;13.20;99.90;;;;;;5043089;28;20396;-59
2022/11/09 06:42:02;;;;;;;5.68;4.53;;;13.20;99.90;;;;;;5059734;28;20082;-61
2022/11/09 06:44:48;;;;;;;5.45;4.20;;;13.10;99.90;;;;;;5035074;28;20041;-61
2022/11/09 06:47:34;;;;;;;14.27;5.03;;;13.20;99.90;;;;;;5050038;28;20043;-60
2022/11/09 06:50:20;;;;;;;9.45;4.80;;;13.20;99.90;;;;;;5050091;28;20569;-58
2022/11/09 06:53:10;;;;;;;14.20;4.68;;;13.10;99.90;;;;;;5050047;28;20036;-60
2022/11/09 06:56:00;;;;;;;14.70;5.85;;;13.20;99.90;;;;;;5050835;28;20021;-60
2022/11/09 06:58:46;;;;;;;9.68;5.28;;;13.20;99.90;;;;;;5036443;28;20100;-58
2022/11/09 07:01:32;;;;;;;11.93;5.43;;;13.20;99.90;;;;;;5035295;28;20480;-61
2022/11/09 07:04:18;;;;;;;15.20;5.65;;;13.10;99.90;;;;;;5030143;28;20486;-59
2022/11/09 07:07:05;;;;;;;21.17;6.07;;;13.20;99.90;;;;;;5018692;28;20032;-56
2022/11/09 07:09:51;;;;;;;14.15;5.97;;;13.30;99.90;;;;;;5049371;28;20513;-58
2022/11/09 07:12:37;;;;;;;9.88;5.45;;;13.30;99.90;;;;;;5049487;28;20750;-59
2022/11/09 07:15:23;;;;;;;14.73;5.85;;;13.20;99.90;;;;;;5049193;28;20052;-59
2022/11/09 07:18:11;;;;;;;10.52;5.50;;;13.20;99.90;;;;;;5048276;28;20647;-59
2022/11/09 07:20:57;;;;;;;15.38;5.32;;;13.20;99.90;;;;;;5049019;28;20091;-62
2022/11/09 07:23:46;;;;;;;11.52;4.90;;;13.20;99.90;;;;;;5050491;28;20036;-61
2022/11/09 07:26:32;;;;;;;11.48;4.95;;;13.10;99.90;;;;;;5048526;28;20135;-60
2022/11/09 07:29:18;;;;;;;6.90;4.97;;;13.00;99.90;;;;;;5049318;28;20478;-61
2022/11/09 07:32:04;;;;;;;9.90;4.78;;;13.00;99.90;;;;;;5047979;28;20409;-61
2022/11/09 07:34:50;;;;;;;12.13;4.95;;;13.00;99.90;;;;;;5049441;28;20021;-61
2022/11/09 07:37:38;;;;;;;8.48;5.38;;;13.00;99.90;;;;;;5029560;28;20032;-61
2022/11/09 07:40:24;;;;;;;7.93;5.32;;;12.90;99.90;;;;;;5017976;28;20026;-62
2022/11/09 07:43:19;;;;;;;5.47;4.78;;;12.90;99.90;;;;;;5050430;28;20509;-61
2022/11/09 07:46:07;;;;;;;5.60;5.10;;;12.90;99.90;;;;;;5036222;28;20120;-61
2022/11/09 07:48:55;;;;;;;6.50;5.20;;;13.00;99.90;;;;;;5048827;28;20091;-60
2022/11/09 07:51:42;;;;;;;7.88;5.25;;;13.00;99.90;;;;;;5035431;28;20025;-57
2022/11/09 07:54:28;;;;;;;6.90;4.72;;;13.00;99.90;;;;;;5049369;28;20497;-57
2022/11/09 07:57:14;;;;;;;6.93;5.03;;;13.00;99.90;;;;;;5048184;28;20083;-58
2022/11/09 07:59:59;;;;;;;6.22;4.97;;;12.90;99.90;;;;;;5034367;28;20060;-61
2022/11/09 08:02:48;;;;;;;12.80;6.18;;;13.00;99.90;;;;;;5033973;28;20033;-61
2022/11/09 08:05:35;;;;;;;23.55;7.85;;;12.90;99.90;;;;;;5047760;28;20033;-56
2022/11/09 08:08:21;;;;;;;13.60;6.22;;;13.00;99.90;;;;;;5028253;28;20060;-61
2022/11/09 08:11:06;;;;;;;10.75;6.15;;;13.10;99.90;;;;;;5030923;28;20026;-61
2022/11/09 08:13:52;;;;;;;11.35;6.03;;;13.10;99.90;;;;;;5048276;28;20107;-60
2022/11/09 08:16:38;;;;;;;13.88;6.45;;;13.20;99.90;;;;;;5038116;28;20025;-60
2022/11/09 08:19:24;;;;;;;18.70;6.35;;;13.20;99.90;;;;;;5048465;28;20029;-63
2022/11/09 08:22:10;;;;;;;11.85;6.80;;;13.20;99.90;;;;;;5047698;28;20087;-56
2022/11/09 08:24:56;;;;;;;18.15;11.25;;;13.20;99.90;;;;;;5033431;28;20524;-61
2022/11/09 08:27:42;;;;;;;19.58;7.57;;;13.30;99.90;;;;;;5047886;28;20040;-57
2022/11/09 08:30:28;;;;;;;14.05;6.63;;;13.30;99.90;;;;;;5048997;28;20027;-60
2022/11/09 08:33:14;;;;;;;11.40;5.88;;;13.40;99.90;;;;;;5048429;28;20055;-58
2022/11/09 08:36:00;;;;;;;11.95;5.75;;;13.40;99.90;;;;;;5048124;28;20440;-61
2022/11/09 08:38:46;;;;;;;8.68;5.10;;;13.40;99.90;;;;;;5048067;28;20111;-60
2022/11/09 08:41:32;;;;;;;10.20;5.53;;;13.50;99.90;;;;;;5033969;28;20033;-60
2022/11/09 08:44:18;;;;;;;19.65;7.25;;;13.60;99.90;;;;;;5042403;28;20025;-60
2022/11/09 08:47:04;;;;;;;7.70;5.47;;;13.60;99.90;;;;;;5048050;28;20090;-62
2022/11/09 08:49:50;;;;;;;17.15;7.07;;;13.60;99.90;;;;;;5028436;28;20579;-62
2022/11/09 08:52:37;;;;;;;15.38;5.93;;;13.60;99.90;;;;;;5033961;28;20694;-59
2022/11/09 08:55:23;;;;;;;8.05;5.47;;;13.60;99.90;;;;;;5048615;28;20025;-66
2022/11/09 08:58:09;;;;;;;17.85;5.78;;;13.70;99.90;;;;;;5035011;28;20108;-57
2022/11/09 09:00:55;;;;;;;8.75;6.38;;;13.70;99.90;;;;;;5034304;28;20473;-60
2022/11/09 09:03:41;;;;;;;10.32;6.05;;;13.80;99.90;;;;;;5032940;28;20098;-58
2022/11/09 09:06:27;;;;;;;7.85;4.75;;;13.80;99.90;;;;;;5034123;28;20488;-60
2022/11/09 09:09:13;;;;;;;5.78;4.88;;;13.90;99.90;;;;;;5014665;28;20552;-64
2022/11/09 09:11:59;;;;;;;7.63;5.30;;;13.90;99.90;;;;;;5036733;28;20425;-64
2022/11/09 09:14:48;;;;;;;7.88;4.25;;;14.00;99.90;;;;;;5034734;28;20456;-60
2022/11/09 09:17:34;;;;;;;13.25;5.15;;;14.00;99.90;;;;;;5034145;28;20043;-62
2022/11/09 09:20:20;;;;;;;10.13;4.57;;;13.90;99.90;;;;;;5048494;28;20078;-63
2022/11/09 09:23:06;;;;;;;13.13;4.90;;;13.90;99.90;;;;;;5030610;28;20063;-63
2022/11/09 09:25:52;;;;;;;6.18;3.97;;;13.90;99.90;;;;;;5051849;28;20108;-61
2022/11/09 09:28:38;;;;;;;8.77;4.40;;;14.00;99.90;;;;;;5051906;28;20029;-66
2022/11/09 09:31:24;;;;;;;6.57;3.95;;;14.00;99.90;;;;;;5037754;28;20214;-60
2022/11/09 09:34:12;;;;;;;8.23;4.18;;;14.10;99.90;;;;;;5052011;28;20033;-61
2022/11/09 09:36:58;;;;;;;7.00;3.50;;;14.20;99.90;;;;;;5024425;28;20036;-61
2022/11/09 09:39:44;;;;;;;7.68;4.05;;;14.20;99.90;;;;;;5047931;28;20033;-62
2022/11/09 09:42:39;;;;;;;10.95;5.30;;;14.30;99.90;;;;;;5017722;28;20564;-61
2022/11/09 09:45:33;;;;;;;11.30;5.00;;;14.40;99.90;;;;;;5041743;28;20033;-62
2022/11/09 09:48:37;;;;;;;10.02;3.95;;;14.50;99.90;;;;;;5051200;28;20033;-61
2022/11/09 09:51:38;;;;;;;11.93;4.05;;;14.60;99.90;;;;;;5040495;28;20074;-63
2022/11/09 09:54:39;;;;;;;9.45;3.90;;;14.60;99.90;;;;;;5069532;28;20009;-61
2022/11/09 09:57:28;;;;;;;19.35;5.28;;;14.70;99.90;;;;;;5048678;28;20030;-61
2022/11/09 10:00:23;;;;;;;14.55;4.40;;;14.70;99.90;;;;;;5045917;28;20388;-62
2022/11/09 10:03:14;;;;;;;;;;;14.80;99.90;;;;;;5051388;28;20417;-61
2022/11/09 10:06:22;;;;;;;11.95;4.13;;;14.80;99.90;;;;;;5051822;28;19915;-61
2022/11/09 10:09:24;;;;;;;9.60;3.58;;;14.90;99.90;;;;;;5051670;28;20053;-62
2022/11/09 10:12:38;;;;;;;6.30;3.28;;;14.90;99.90;;;;;;5045529;28;20021;-61
2022/11/09 10:15:58;;;;;;;5.28;3.55;;;14.90;99.90;;;;;;5049662;28;20408;-63
2022/11/09 10:19:02;;;;;;;8.48;4.10;;;14.90;99.90;;;;;;5048050;28;20036;-62
2022/11/09 10:22:25;;;;;;;5.50;3.40;;;15.00;99.90;;;;;;5046361;28;20096;-63
2022/11/09 10:25:25;;;;;;;5.85;3.45;;;14.90;99.90;;;;;;5050923;28;20021;-62
2022/11/09 10:28:14;;;;;;;7.32;4.03;;;14.90;99.90;;;;;;5049905;28;20090;-62
2022/11/09 10:31:02;;;;;;;8.38;4.18;;;14.90;99.90;;;;;;5049383;28;20021;-62
2022/11/09 10:33:53;;;;;;;15.23;5.05;;;14.80;99.90;;;;;;5049995;28;20017;-61
2022/11/09 10:36:48;;;;;;;14.77;5.05;;;14.80;99.90;;;;;;5048058;28;20031;-62
2022/11/09 10:39:53;;;;;;;4.10;3.40;;;14.80;99.90;;;;;;5050741;28;20033;-62
2022/11/09 10:42:44;;;;;;;10.18;4.20;;;14.90;99.90;;;;;;5035750;28;20508;-62
2022/11/09 10:45:38;;;;;;;8.70;3.97;;;14.90;99.90;;;;;;5034621;28;20055;-62
2022/11/09 10:48:35;;;;;;;13.18;3.83;;;15.00;99.90;;;;;;5049188;28;20083;-64
2022/11/09 10:51:36;;;;;;;9.40;4.00;;;15.10;99.90;;;;;;5047768;28;20013;-66
2022/11/09 10:54:30;;;;;;;8.15;4.10;;;15.20;99.90;;;;;;5049913;28;20016;-64
2022/11/09 10:57:19;;;;;;;12.95;4.72;;;15.20;99.90;;;;;;5032997;28;20024;-61
2022/11/09 11:00:20;;;;;;;18.77;4.22;;;15.20;99.90;;;;;;5051086;28;20037;-63
2022/11/09 11:03:26;;;;;;;9.73;5.30;;;15.30;99.90;;;;;;5052851;28;20494;-63
2022/11/09 11:06:19;;;;;;;15.23;5.97;;;15.40;99.90;;;;;;5037764;28;20036;-63
2022/11/09 11:09:05;;;;;;;9.50;3.83;;;15.50;99.90;;;;;;5048301;28;20489;-63
2022/11/09 11:12:16;;;;;;;9.75;3.70;;;15.60;99.90;;;;;;5016005;28;20075;-63
2022/11/09 11:15:13;;;;;;;6.65;4.22;;;15.70;99.90;;;;;;5043405;28;20017;-63
2022/11/09 11:18:04;;;;;;;10.50;4.28;;;15.70;99.90;;;;;;5034483;28;20123;-64
2022/11/09 11:21:19;;;;;;;6.72;4.03;;;15.70;99.90;;;;;;5034045;28;20048;-66
2022/11/09 11:24:17;;;;;;;7.18;4.03;;;15.70;99.90;;;;;;5049948;28;20032;-65
2022/11/09 11:27:09;;;;;;;6.20;4.30;;;15.80;99.90;;;;;;5034274;28;20043;-62
2022/11/09 11:30:17;;;;;;;8.05;4.50;;;15.80;99.90;;;;;;5029894;28;20067;-62
2022/11/09 11:33:14;;;;;;;5.43;3.38;;;15.80;99.90;;;;;;5032365;28;20056;-63
2022/11/09 11:36:40;;;;;;;5.03;3.15;;;15.70;99.90;;;;;;5049155;28;20028;-63
2022/11/09 11:39:54;;;;;;;5.28;3.28;;;15.70;99.90;;;;;;5048723;28;20017;-66
2022/11/09 11:43:18;;;;;;;8.70;3.80;;;15.70;99.90;;;;;;5048344;28;20029;-63
2022/11/09 11:46:37;;;;;;;13.90;4.40;;;15.70;99.90;;;;;;5040348;28;20029;-62
2022/11/09 11:49:47;;;;;;;7.50;3.22;;;15.60;99.90;;;;;;5032220;28;20025;-63
2022/11/09 11:53:07;;;;;;;4.53;3.40;;;15.80;99.90;;;;;;5029298;28;20075;-63
2022/11/09 11:56:23;;;;;;;6.75;3.63;;;15.90;99.90;;;;;;5013578;28;20022;-62
2022/11/09 11:59:15;;;;;;;7.88;3.90;;;16.00;99.90;;;;;;5028963;28;20551;-62
2022/11/09 12:02:52;;;;;;;5.93;3.20;;;16.10;99.90;;;;;;5031942;28;20061;-62
2022/11/09 12:06:11;;;;;;;3.65;2.58;;;16.20;99.90;;;;;;4989557;28;20468;-62
2022/11/09 12:09:28;;;;;;;3.60;2.50;;;16.00;99.90;;;;;;5047379;28;20108;-62
2022/11/09 12:12:18;;;;;;;5.38;2.72;;;16.20;99.90;;;;;;5013741;28;20043;-63
2022/11/09 12:15:10;;;;;;;8.10;3.20;;;16.20;99.90;;;;;;5049229;28;20041;-64
2022/11/09 12:18:10;;;;;;;3.20;2.38;;;16.20;99.90;;;;;;5016087;28;20025;-62
2022/11/09 12:21:14;;;;;;;3.95;2.30;;;16.30;99.90;;;;;;5028470;28;20053;-63
2022/11/09 12:24:24;;;;;;;2.25;2.00;;;16.40;99.90;;;;;;5031444;28;20032;-64
2022/11/09 12:27:37;;;;;;;4.22;2.40;;;16.50;99.90;;;;;;5048371;28;20343;-63
2022/11/09 12:30:50;;;;;;;7.75;3.20;;;16.60;99.90;;;;;;5015514;28;20108;-65
2022/11/09 12:33:51;;;;;;;2.60;2.20;;;16.70;99.90;;;;;;5015881;28;20091;-63
2022/11/09 12:36:40;;;;;;;4.07;2.63;;;16.80;99.90;;;;;;5028196;28;20053;-64
2022/11/09 12:39:34;;;;;;;3.30;2.42;;;16.90;99.90;;;;;;5038783;28;20025;-64
2022/11/09 12:42:34;;;;;;;2.83;2.38;;;17.00;99.90;;;;;;5048729;28;20029;-63
2022/11/09 12:45:37;;;;;;;5.32;2.20;;;17.00;99.90;;;;;;5049292;28;20476;-64
2022/11/09 12:48:25;;;;;;;6.07;2.70;;;17.10;99.90;;;;;;5047530;28;20083;-63
2022/11/09 12:51:11;;;;;;;3.42;2.40;;;17.30;99.80;;;;;;5048397;28;20467;-64
2022/11/09 12:54:01;;;;;;;3.55;2.88;;;17.40;99.30;;;;;;5048268;28;20028;-64
2022/11/09 12:56:58;;;;;;;3.42;2.80;;;17.30;99.20;;;;;;5033548;28;20513;-63
2022/11/09 12:59:56;;;;;;;4.80;2.53;;;17.10;99.50;;;;;;5051473;28;20132;-62
2022/11/09 13:02:52;;;;;;;3.80;2.40;;;17.00;99.50;;;;;;5050447;28;20056;-62
2022/11/09 13:05:39;;;;;;;2.70;2.30;;;16.80;99.50;;;;;;5036910;28;20401;-62
2022/11/09 13:08:28;;;;;;;5.07;2.38;;;16.70;99.60;;;;;;5033774;28;20035;-62
2022/11/09 13:11:21;;;;;;;4.07;2.38;;;16.60;99.90;;;;;;5051418;28;20022;-61
2022/11/09 13:14:25;;;;;;;2.50;2.30;;;16.50;99.70;;;;;;5005533;28;20021;-62
2022/11/09 13:17:23;;;;;;;4.07;2.25;;;16.50;99.90;;;;;;5020788;28;20047;-63
2022/11/09 13:20:42;;;;;;;2.63;2.03;;;16.40;99.80;;;;;;5051694;28;20525;-62
2022/11/09 13:23:34;;;;;;;2.72;2.10;;;16.40;99.50;;;;;;4997840;28;20036;-62
2022/11/09 13:26:21;;;;;;;3.33;2.30;;;16.40;99.50;;;;;;5050936;28;20093;-61
2022/11/09 13:29:07;;;;;;;3.28;2.60;;;16.40;99.60;;;;;;5051066;28;20045;-63
2022/11/09 13:32:11;;;;;;;2.33;2.03;;;16.20;99.70;;;;;;5037216;28;20049;-63
2022/11/09 13:34:58;;;;;;;3.25;2.20;;;16.30;99.70;;;;;;5037157;28;20029;-63
2022/11/09 13:37:48;;;;;;;3.70;2.20;;;16.30;99.80;;;;;;5051272;28;20033;-64
2022/11/09 13:40:38;;;;;;;4.18;2.50;;;16.30;99.80;;;;;;5050271;28;20124;-64
2022/11/09 13:43:44;;;;;;;4.30;2.10;;;16.30;99.90;;;;;;5051800;28;20029;-63
2022/11/09 13:46:37;;;;;;;2.75;2.10;;;16.30;99.90;;;;;;5051679;28;20036;-62
2022/11/09 13:49:43;;;;;;;3.85;2.08;;;16.30;99.90;;;;;;5051584;28;20025;-62
2022/11/09 13:52:48;;;;;;;3.40;2.50;;;16.30;99.90;;;;;;5050382;28;20041;-65
2022/11/09 13:55:41;;;;;;;2.58;2.17;;;16.30;99.80;;;;;;5037702;28;20053;-62
2022/11/09 13:58:37;;;;;;;3.00;2.40;;;16.30;99.90;;;;;;5049857;28;20025;-63
2022/11/09 14:01:34;;;;;;;2.50;2.10;;;16.20;99.90;;;;;;5051094;28;20112;-61
2022/11/09 14:04:27;;;;;;;2.60;2.08;;;16.30;99.90;;;;;;5045373;28;20247;-63
2022/11/09 14:07:34;;;;;;;4.40;2.40;;;16.30;99.90;;;;;;5049664;28;20032;-63
2022/11/09 14:10:42;;;;;;;6.00;2.63;;;16.30;99.90;;;;;;5038323;28;20096;-62
2022/11/09 14:13:43;;;;;;;9.50;2.80;;;16.10;99.90;;;;;;5050611;28;20022;-62
2022/11/09 14:16:40;;;;;;;5.30;2.42;;;16.10;99.90;;;;;;5050941;28;20104;-61
2022/11/09 14:19:44;;;;;;;7.63;2.45;;;16.10;99.90;;;;;;5051196;28;20029;-61
2022/11/09 14:22:34;;;;;;;3.47;2.28;;;16.00;99.90;;;;;;5050220;28;20099;-62
2022/11/09 14:25:23;;;;;;;2.88;2.22;;;16.00;99.90;;;;;;5051438;28;20040;-62
2022/11/09 14:28:27;;;;;;;3.47;2.40;;;15.90;99.90;;;;;;5050496;28;20029;-61
2022/11/09 14:31:25;;;;;;;4.30;2.55;;;15.90;99.90;;;;;;5050106;28;20048;-62
2022/11/09 14:34:15;;;;;;;5.10;2.70;;;15.90;99.90;;;;;;5050493;28;20125;-63
2022/11/09 14:37:12;;;;;;;3.60;2.40;;;15.90;99.90;;;;;;5050966;28;20059;-63
2022/11/09 14:39:58;;;;;;;2.80;2.25;;;15.90;99.90;;;;;;5050273;28;20029;-63
2022/11/09 14:42:54;;;;;;;3.78;2.42;;;15.90;99.90;;;;;;5036916;28;20048;-64
2022/11/09 14:46:01;;;;;;;4.45;2.40;;;15.90;99.90;;;;;;5016908;28;20108;-63
2022/11/09 14:49:01;;;;;;;4.13;2.72;;;15.80;99.90;;;;;;5045240;28;20040;-63